Impacts TAF Board
For situational awareness. Not to be used for flight planning purposes.
IDs:

KCVS - Clovis/Cannon AFB, NM, US

Issued at 1805 UTC 08 Aug 2020
Updated at 2154 UTC 08 Aug 2020
Potential Impact None Slight Moderate High
Time2145Z 08/22Z 08/23Z 09/00Z 09/01Z 09/02Z 09/03Z 09/04Z 09/05Z 09/06Z 09/07Z 09/08Z 09/09Z 09/10Z>>
Type OBS PRVL PRVL PRVL PRVL PRVL PRVL PRVL PRVL PRVL PRVL PRVL PRVL PRVL
VIS 10 5.59 5.59 5.59 5.59 5.59 >6 >6 >6 >6 >6 >6 >6 >6
CIG -- 120 120 120 120 120 -- -- -- -- -- -- -- --
Cover FEW BKN BKN BKN BKN BKN SCT SCT SCT SCT SCT SCT FEW FEW
FltCat VFR VFR VFR VFR VFR VFR VFR VFR VFR VFR VFR VFR VFR VFR
WX -- -TSRA -TSRA -TSRA -TSRA -TSRA NSW NSW NSW NSW NSW NSW NSW NSW
WDir 180 240 240 240 240 240 220 220 220 220 220 220 190 190
WSpd 13 25 25 25 25 25 10 10 10 10 10 10 8 8
WGst 21 35 35 35 35 35 15 15 15 15 15 15 -- --
Raw TAF
TAF KCVS 081805Z 0818/0924 19015G20KT 9999 FEW180 QNH3008INS
  BECMG 0821/0822 21020G25KT 9999 FEW180 QNH3007INS
  BECMG 0822/0823 24025G35KT 9000 -TSRA BKN120CB QNH3006INS
  BECMG 0903/0904 22010G15KT 9999 NSW SCT180 QNH3011INS
  BECMG 0909/0910 19008KT 9999 FEW180 QNH3010INS
  BECMG 0919/0920 22010G20KT 9999 SCT180 QNH3001INS TX36/0820Z TN19/0912Z LAST NO AMDS AFT 0801 NEXT 0818


Raw METAR
KCVS 082145Z AUTO 18013G21KT 10SM FEW100 36/10 A3009 RMK AO2 WSHFT 33 SLP118 $
KCVS 082118Z AUTO 22018KT 10SM FEW100 36/09 A3010 RMK AO2 WSHFT 14 SLP121 $
KCVS 082058Z AUTO 25015KT 10SM FEW110 35/10 A3010 RMK AO2 PK WND 21027/15 SLP124 T03510095 57016 $
KCVS 082040Z AUTO 18010G16KT 10SM CLR 35/10 A3011 RMK AO2 WSHFT 33 SLP127 $
KCVS 082009Z AUTO 19012G22KT 10SM CLR 35/10 A3012 RMK AO2 WSHFT 03 SLP131 $
KCVS 082002Z AUTO 22015G22KT 10SM FEW200 35/10 A3012 RMK AO2 WSHFT 1955 SLP131 $
KCVS 081958Z AUTO 21016G21KT 10SM FEW210 34/10 A3012 RMK AO2 SLP133 T03440102 $
KCVS 081932Z AUTO 18015G20KT 10SM CLR 35/11 A3013 RMK AO2 WSHFT 22 SLP134 $
KCVS 081858Z AUTO 20013G20KT 10SM CLR 34/10 A3014 RMK AO2 SLP138 T03360102 $

METAR Board
For situational awareness. Not to be used for flight planning purposes.